Flight Track Log - Related Links

Times and Time Zones

All times are in EDT time to prevent confusion due to time zone crossing. See the N682RW flight status page for this flight to view local times or setup timezone preferences in your user account.

Time Position Orientation Groundspeed Altitude Reporting Facility
EDT Latitude Longitude Course Direction KTS MPH feet Rate Location/Type
Fri 01:37:19 AM 32.8333 -96.8333 121° Southeast 170 196 1,600  Level Dallas / Fort Worth TRACON
Fri 01:38:01 AM 32.8167 -96.8000 121° Southeast 200 230 3,100 2,294 Climbing Dallas / Fort Worth TRACON
Fri 01:39:01 AM 32.7667 -96.7333 132° Southeast 255 293 5,500 2,632 Climbing Dallas / Fort Worth TRACON
Fri 01:39:55 AM 32.7167 -96.7000 151° Southeast 276 318 8,100 2,500 Climbing Dallas / Fort Worth TRACON
Fri 01:41:01 AM 32.6272 -96.6772 168° South 289 333 10,500 1,905 Climbing Fort Worth Center
Fri 01:42:01 AM 32.5397 -96.6336 157° South 341 392 12,100 2,083 Climbing Fort Worth Center
Fri 01:43:02 AM 32.4419 -96.5847 157° South 379 436 14,700 2,579 Climbing Fort Worth Center
Fri 01:44:02 AM 32.3400 -96.5353 158° South 391 450 17,300 2,400 Climbing Fort Worth Center
Fri 01:45:02 AM 32.2367 -96.4861 158° South 401 461 19,500 2,000 Climbing Fort Worth Center
Fri 01:46:02 AM 32.1300 -96.4339 157° South 418 481 21,300 1,835 Climbing Fort Worth Center
Fri 01:47:03 AM 32.0211 -96.3817 158° South 421 484 23,200 1,636 Climbing Fort Worth Center
Fri 01:48:03 AM 31.9081 -96.3289 158° South 434 499 24,600 900 Climbing Fort Worth Center
Fri 01:49:03 AM 31.7900 -96.2725 158° South 452 520 25,000 200 Climbing Fort Worth Center
Fri 01:50:03 AM 31.6808 -96.2197 158° South 455 524 25,000  Level Fort Worth Center
Fri 01:51:04 AM 31.5631 -96.1644 158° South 454 522 25,000  Level Fort Worth Center
Fri 01:52:04 AM 31.4458 -96.1089 158° South 453 521 25,000  Level Fort Worth Center
Fri 01:53:04 AM 31.3286 -96.0536 158° South 453 521 25,000  Level Fort Worth Center
Fri 01:54:05 AM 31.2119 -96.0003 159° South 452 520 25,000  Level Fort Worth Center
Fri 01:55:05 AM 31.0925 -95.9578 163° South 450 518 25,000 -375 Level Fort Worth Center
Fri 01:56:13 AM 30.9608 -95.9086 162° South 447 514 24,200 -1,359 Descending Houston Center
Fri 01:57:13 AM 30.8461 -95.8644 162° South 440 506 22,100 -2,447 Descending Houston Center
Fri 01:57:29 AM 30.7961 -95.8472 164° South 430 495 21,100 -2,604 Descending Houston Center
Fri 01:58:06 AM 30.7372 -95.8225 160° South 425 489 19,800 -2,660 Descending Houston Center
Fri 01:59:06 AM 30.6178 -95.7783 162° South 410 472 16,800 -2,661 Descending Houston Center
Fri 02:00:01 AM 30.5267 -95.7431 162° South 410 472 14,700 -2,206 Descending Houston Center
Fri 02:00:14 AM 30.5131 -95.7372 160° South 409 471 14,300 -1,770 Descending Houston Center
Fri 02:01:02 AM 30.4167 -95.7097 166° South 373 429 12,900 -1,400 Descending Houston Center
Fri 02:01:14 AM 30.4103 -95.7086 171° South 382 440 12,900 -1,200 Level Houston Center
Fri 02:02:02 AM 30.3225 -95.6894 169° South 335 386 11,700 -1,300 Descending Houston Center
Fri 02:02:14 AM 30.3175 -95.6861 150° Southeast 344 396 11,600 -1,377 Descending Houston Center
Fri 02:03:03 AM 30.2344 -95.6658 168° South 323 372 10,300 -1,400 Descending Houston Center
Fri 02:03:14 AM 30.2289 -95.6650 173° South 328 377 10,200 -273 Descending Houston Center
Fri 02:04:09 AM 30.1419 -95.6431 168° South 293 337 10,000 -103 Descending Houston Center
Fri 02:05:10 AM 30.0669 -95.6253 168° South 277 319 10,000 -689 Level Houston Center
Fri 02:06:11 AM 29.9917 -95.6053 167° South 279 321 8,600 -1,248 Descending Houston Center
Fri 02:07:15 AM 29.9236 -95.5875 167° South 275 316 7,400 -1,258 Descending Houston Center
Fri 02:08:15 AM 29.8542 -95.5703 168° South 261 300 6,000 -1,400 Descending Houston Center
Fri 02:09:15 AM 29.7906 -95.5358 155° Southeast 256 295 4,600 -1,488 Descending Houston Center
Fri 02:10:16 AM 29.7272 -95.5053 157° South 250 288 3,000 -793 Descending Houston Center
Fri 02:11:16 AM 29.6778 -95.4719 150° Southeast 215 247 3,000 -200 Level Houston Center
Fri 02:12:16 AM 29.6425 -95.4406 142° Southeast 173 199 2,600 -600 Descending Houston Center
Fri 02:13:16 AM 29.6039 -95.4044 141° Southeast 159 183 1,800 -500 Descending Houston Center
Fri 02:14:16 AM 29.5964 -95.3594 101° East 149 171 1,600 -446 Descending Houston Center
Fri 02:15:17 AM 29.6156 -95.3156 63° Northeast 152 175 900 -689 Descending Houston Center

Login

Don't have an account? Register now (free) for customized features, flight alerts, and more!